createdAt,value
2023-02-17T00:00:28.953Z,2.03
2023-02-17T00:02:58.035Z,1.90
2023-02-17T00:05:26.665Z,1.60
2023-02-17T00:07:56.889Z,2.22
2023-02-17T00:10:25.049Z,2.28
2023-02-17T00:12:53.443Z,2.00
2023-02-17T00:15:21.611Z,1.38
2023-02-17T00:17:51.667Z,1.70
2023-02-17T00:20:19.959Z,1.50
2023-02-17T00:22:48.378Z,1.92
2023-02-17T00:25:21.804Z,1.75
2023-02-17T00:27:50.157Z,2.70
2023-02-17T00:30:18.477Z,1.40
2023-02-17T00:32:51.891Z,2.17
2023-02-17T00:35:20.822Z,1.00
2023-02-17T00:37:48.983Z,1.42
2023-02-17T00:40:17.718Z,1.63
2023-02-17T00:42:46.177Z,1.98
2023-02-17T00:45:16.731Z,1.38
2023-02-17T00:47:45.303Z,1.70
2023-02-17T00:50:14.701Z,1.80
2023-02-17T00:52:45.490Z,1.92
2023-02-17T00:55:13.527Z,2.42
2023-02-17T00:57:44.115Z,1.35
2023-02-17T01:00:13.168Z,2.08
2023-02-17T01:02:51.480Z,1.52
2023-02-17T01:05:20.997Z,2.75
2023-02-17T01:07:49.471Z,1.60
2023-02-17T01:10:18.160Z,1.90
2023-02-17T01:12:46.898Z,2.17
2023-02-17T01:15:15.342Z,1.70
2023-02-17T01:17:44.167Z,1.75
2023-02-17T01:20:12.549Z,1.70
2023-02-17T01:22:42.326Z,1.67
2023-02-17T01:25:10.696Z,2.00
2023-02-17T01:27:39.178Z,1.88
2023-02-17T01:30:10.535Z,1.60
2023-02-17T01:32:41.159Z,1.52
2023-02-17T01:35:09.357Z,1.95
2023-02-17T01:37:37.671Z,1.70
2023-02-17T01:40:08.638Z,1.70
2023-02-17T01:45:34.156Z,1.92
2023-02-17T01:48:07.429Z,1.23
2023-02-17T01:50:41.634Z,2.63
2023-02-17T01:53:12.878Z,1.75
2023-02-17T01:55:43.326Z,1.60
2023-02-17T01:58:16.614Z,2.13
2023-02-17T02:00:45.017Z,1.52
2023-02-17T02:03:15.127Z,1.92
2023-02-17T02:05:46.034Z,2.38
2023-02-17T02:08:16.093Z,1.90
2023-02-17T02:10:45.746Z,2.83
2023-02-17T02:13:13.909Z,2.15
2023-02-17T02:15:52.821Z,1.48
2023-02-17T02:18:43.173Z,1.42
2023-02-17T02:21:48.336Z,1.48
2023-02-17T02:24:25.420Z,2.10
2023-02-17T02:27:29.266Z,1.73
2023-02-17T02:30:13.060Z,2.40
2023-02-17T02:32:51.368Z,1.70
2023-02-17T02:35:25.816Z,1.50
2023-02-17T02:38:01.203Z,2.30
2023-02-17T02:40:35.406Z,2.50
2023-02-17T02:43:05.587Z,2.15
2023-02-17T02:45:34.982Z,1.85
2023-02-17T02:48:07.156Z,2.00
2023-02-17T02:50:50.534Z,1.67
2023-02-17T02:53:51.402Z,1.48
2023-02-17T02:56:32.916Z,1.58
2023-02-17T02:59:07.345Z,2.05
2023-02-17T03:01:45.745Z,2.55
2023-02-17T03:04:20.882Z,2.05
2023-02-17T03:06:53.959Z,1.33
2023-02-17T03:09:25.496Z,2.00
2023-02-17T03:11:55.783Z,1.90
2023-02-17T03:14:28.372Z,2.15
2023-02-17T03:16:56.556Z,1.42
2023-02-17T03:19:30.011Z,1.17
2023-02-17T03:22:04.144Z,1.90
2023-02-17T03:24:33.841Z,2.50
2023-02-17T03:27:02.002Z,1.13
2023-02-17T03:29:30.441Z,1.42
2023-02-17T03:31:58.968Z,1.50
2023-02-17T03:34:29.708Z,1.35
2023-02-17T03:36:58.471Z,1.50
2023-02-17T03:39:27.462Z,1.25
2023-02-17T03:41:55.776Z,1.25
2023-02-17T03:44:23.891Z,1.23
2023-02-17T03:46:52.112Z,1.40
2023-02-17T03:49:20.191Z,1.63
2023-02-17T03:51:50.300Z,1.20
2023-02-17T03:54:18.378Z,1.15
2023-02-17T03:56:48.976Z,1.42
2023-02-17T03:59:19.356Z,1.40
2023-02-17T04:01:47.573Z,1.58
2023-02-17T04:04:15.757Z,1.40
2023-02-17T04:06:44.366Z,1.13
2023-02-17T04:09:13.811Z,1.25
2023-02-17T04:11:42.161Z,1.38
2023-02-17T04:14:10.411Z,1.10
2023-02-17T04:16:39.239Z,1.10
2023-02-17T04:19:09.467Z,6.25
2023-02-17T04:21:37.517Z,2.55
2023-02-17T04:24:56.998Z,0.98
2023-02-17T04:27:26.901Z,1.20
2023-02-17T04:29:55.014Z,1.17
2023-02-17T04:32:23.020Z,0.85
2023-02-17T04:34:51.314Z,1.20
2023-02-17T04:37:19.384Z,1.23
2023-02-17T04:39:47.583Z,1.23
2023-02-17T04:42:15.850Z,1.00
2023-02-17T04:44:45.578Z,1.02
2023-02-17T04:47:13.825Z,0.90
2023-02-17T04:49:44.423Z,0.70
2023-02-17T04:52:12.769Z,0.90
2023-02-17T04:54:40.928Z,0.80
2023-02-17T04:57:11.547Z,1.27
2023-02-17T05:01:28.793Z,1.20
2023-02-17T05:03:56.869Z,1.05
2023-02-17T05:06:24.932Z,1.13
2023-02-17T05:08:54.195Z,5.10
2023-02-17T05:11:22.222Z,1.08
2023-02-17T05:13:50.343Z,0.60
2023-02-17T05:16:18.449Z,0.75
2023-02-17T05:18:47.960Z,0.77
2023-02-17T05:21:16.105Z,0.73
2023-02-17T05:23:44.159Z,0.30
2023-02-17T05:26:14.493Z,1.15
2023-02-17T05:28:43.381Z,0.65
2023-02-17T05:31:12.499Z,0.98
2023-02-17T05:33:43.207Z,0.47
2023-02-17T05:36:13.191Z,0.40
2023-02-17T05:38:41.830Z,0.68
2023-02-17T05:41:09.843Z,0.30
2023-02-17T05:43:38.233Z,0.22
2023-02-17T05:46:07.339Z,0.50
2023-02-17T05:48:36.035Z,0.70
2023-02-17T05:51:04.710Z,2.97
2023-02-17T05:53:34.210Z,1.20
2023-02-17T05:56:02.288Z,0.40
2023-02-17T05:58:31.384Z,0.70
2023-02-17T06:00:59.462Z,0.50
2023-02-17T06:03:27.837Z,0.47
2023-02-17T06:05:55.877Z,0.30
2023-02-17T06:08:24.039Z,0.32
2023-02-17T06:10:55.462Z,0.50
2023-02-17T06:13:23.567Z,0.25
2023-02-17T06:15:52.443Z,0.55
2023-02-17T06:18:20.772Z,0.40
2023-02-17T06:20:49.395Z,0.45
2023-02-17T06:23:17.730Z,0.40
2023-02-17T06:25:45.960Z,0.32
2023-02-17T06:28:15.441Z,0.50
2023-02-17T06:30:43.928Z,0.68
2023-02-17T06:33:14.427Z,0.30
2023-02-17T06:35:44.653Z,0.40
2023-02-17T06:38:12.746Z,0.40
2023-02-17T06:40:40.962Z,0.40
2023-02-17T06:43:09.014Z,0.80
2023-02-17T06:45:39.756Z,0.52
2023-02-17T06:48:07.884Z,0.38
2023-02-17T06:50:41.108Z,0.57
2023-02-17T06:53:09.400Z,0.52
2023-02-17T06:55:39.706Z,0.57
2023-02-17T06:58:08.395Z,0.57
2023-02-17T07:00:37.137Z,0.20
2023-02-17T07:03:06.734Z,0.40
2023-02-17T07:05:37.164Z,0.40
2023-02-17T07:08:06.035Z,0.30
2023-02-17T07:10:38.428Z,0.20
2023-02-17T07:13:06.577Z,0.20
2023-02-17T07:15:37.138Z,0.17
2023-02-17T07:18:08.955Z,0.30
2023-02-17T07:20:39.171Z,0.43
2023-02-17T07:23:07.655Z,0.52
2023-02-17T07:25:36.091Z,0.38
2023-02-17T07:28:04.848Z,0.40
2023-02-17T07:30:33.099Z,0.55
2023-02-17T07:33:01.166Z,0.57
2023-02-17T07:35:33.529Z,0.40
2023-02-17T07:38:02.222Z,0.57
2023-02-17T07:40:30.795Z,0.40
2023-02-17T07:42:59.228Z,0.70
2023-02-17T07:45:27.684Z,0.40
2023-02-17T07:47:55.820Z,0.73
2023-02-17T07:50:24.209Z,0.30
2023-02-17T07:52:53.769Z,0.32
2023-02-17T07:55:25.498Z,0.25
2023-02-17T07:57:53.548Z,0.50
2023-02-17T08:00:22.224Z,0.32
2023-02-17T08:02:52.870Z,0.50
2023-02-17T08:05:21.301Z,0.60
2023-02-17T08:08:12.871Z,0.50
2023-02-17T08:10:58.659Z,0.55
2023-02-17T08:13:28.159Z,0.60
2023-02-17T08:15:56.529Z,0.55
2023-02-17T08:18:28.979Z,0.40
2023-02-17T08:20:57.637Z,0.47
2023-02-17T08:23:30.480Z,0.40
2023-02-17T08:25:59.232Z,0.60
2023-02-17T08:28:27.331Z,0.38
2023-02-17T08:30:55.787Z,0.68
2023-02-17T08:33:24.061Z,0.38
2023-02-17T08:35:52.406Z,0.82
2023-02-17T08:38:20.486Z,0.52
2023-02-17T08:40:50.926Z,0.50
2023-02-17T08:43:19.035Z,0.55
2023-02-17T08:45:47.322Z,0.60
2023-02-17T08:48:17.869Z,0.55
2023-02-17T08:50:48.745Z,0.50
2023-02-17T08:53:17.348Z,0.43
2023-02-17T08:55:49.741Z,0.43
2023-02-17T08:58:21.808Z,0.47
2023-02-17T09:00:50.646Z,0.25
2023-02-17T09:03:18.820Z,0.47
2023-02-17T09:05:47.000Z,0.30
2023-02-17T09:08:15.525Z,0.85
2023-02-17T09:10:43.923Z,0.40
2023-02-17T09:13:12.326Z,0.50
2023-02-17T09:15:42.016Z,0.60
2023-02-17T09:18:10.708Z,0.40
2023-02-17T09:20:39.619Z,0.60
2023-02-17T09:23:08.503Z,0.70
2023-02-17T09:25:44.190Z,0.50
2023-02-17T09:28:14.059Z,0.47
2023-02-17T09:30:46.920Z,0.47
2023-02-17T09:33:15.211Z,0.45
2023-02-17T09:35:44.451Z,0.55
2023-02-17T09:38:15.400Z,0.52
2023-02-17T09:40:50.727Z,0.50
2023-02-17T09:43:23.646Z,0.43
2023-02-17T09:46:00.170Z,0.68
2023-02-17T09:48:32.312Z,0.60
2023-02-17T09:51:03.992Z,0.65
2023-02-17T09:53:40.264Z,0.43
2023-02-17T09:56:13.301Z,0.70
2023-02-17T09:58:48.905Z,0.60
2023-02-17T10:02:38.409Z,0.50
2023-02-17T10:05:10.653Z,0.35
2023-02-17T10:07:43.439Z,0.20
2023-02-17T10:10:19.740Z,0.52
2023-02-17T10:12:51.392Z,0.60
2023-02-17T10:15:24.349Z,0.40
2023-02-17T10:17:59.865Z,0.50
2023-02-17T10:20:33.790Z,0.40
2023-02-17T10:23:12.240Z,0.55
2023-02-17T10:25:52.350Z,0.52
2023-02-17T10:28:35.792Z,0.35
2023-02-17T10:31:06.573Z,1.25
2023-02-17T10:33:51.670Z,0.43
2023-02-17T10:36:27.235Z,0.32
2023-02-17T10:39:02.700Z,0.55
2023-02-17T10:41:37.076Z,0.30
2023-02-17T10:44:11.416Z,0.30
2023-02-17T10:46:41.893Z,0.40
2023-02-17T10:49:19.706Z,0.30
2023-02-17T10:51:47.779Z,0.20
2023-02-17T10:54:27.787Z,0.40
2023-02-17T10:56:58.662Z,0.30
2023-02-17T10:59:33.881Z,0.45
2023-02-17T11:02:16.918Z,0.40
2023-02-17T11:04:48.663Z,0.30
2023-02-17T11:07:19.611Z,0.20
2023-02-17T11:09:50.252Z,0.73
2023-02-17T11:12:23.701Z,0.30
2023-02-17T11:14:55.142Z,0.45
2023-02-17T11:17:29.420Z,0.30
2023-02-17T11:20:04.010Z,0.28
2023-02-17T11:22:35.939Z,0.20
2023-02-17T11:25:09.129Z,0.52
2023-02-17T11:27:37.170Z,0.35
2023-02-17T11:30:11.079Z,0.40
2023-02-17T11:32:43.824Z,0.20
2023-02-17T11:35:25.334Z,0.20
2023-02-17T11:37:54.266Z,0.30
2023-02-17T11:40:27.228Z,0.30
2023-02-17T11:43:00.660Z,0.60
2023-02-17T11:45:41.721Z,0.50
2023-02-17T11:48:41.431Z,0.30
2023-02-17T11:51:17.201Z,0.40
2023-02-17T11:53:56.069Z,0.63
2023-02-17T11:56:27.107Z,0.30
2023-02-17T12:02:19.449Z,0.30
2023-02-17T12:05:01.829Z,0.30
2023-02-17T12:07:47.648Z,0.22
2023-02-17T12:10:26.656Z,0.30
2023-02-17T12:13:08.198Z,0.30
2023-02-17T12:15:56.405Z,0.22
2023-02-17T12:18:40.323Z,0.30
2023-02-17T12:21:14.316Z,0.15
2023-02-17T12:24:06.776Z,0.30
2023-02-17T12:26:41.745Z,0.35
2023-02-17T12:29:33.241Z,0.20
2023-02-17T12:32:11.022Z,0.30
2023-02-17T12:34:44.107Z,0.35
2023-02-17T12:37:21.917Z,0.20
2023-02-17T12:39:57.524Z,0.40
2023-02-17T12:42:34.183Z,0.20
2023-02-17T12:45:07.833Z,0.28
2023-02-17T12:47:47.174Z,0.20
2023-02-17T12:50:20.645Z,0.30
2023-02-17T12:55:24.080Z,0.38
2023-02-17T12:57:58.461Z,0.55
2023-02-17T13:00:31.600Z,0.33
2023-02-17T13:03:00.266Z,0.30
2023-02-17T13:05:36.851Z,0.30
2023-02-17T13:08:11.944Z,0.20
2023-02-17T13:10:42.515Z,0.40
2023-02-17T13:13:15.382Z,0.40
2023-02-17T13:15:46.279Z,0.40
2023-02-17T13:18:27.551Z,0.30
2023-02-17T13:21:20.648Z,0.30
2023-02-17T13:24:01.158Z,0.32
2023-02-17T13:26:33.229Z,0.25
2023-02-17T13:29:35.764Z,0.47
2023-02-17T13:32:06.133Z,0.40
2023-02-17T13:34:37.275Z,0.50
2023-02-17T13:37:18.593Z,0.35
2023-02-17T13:39:47.063Z,0.38
2023-02-17T13:42:48.264Z,0.88
2023-02-17T13:45:22.177Z,0.68
2023-02-17T13:47:52.733Z,0.50
2023-02-17T13:50:34.481Z,0.10
2023-02-17T13:53:04.286Z,0.38
2023-02-17T13:55:32.800Z,1.45
2023-02-17T13:58:02.856Z,0.70
2023-02-17T14:00:33.571Z,0.55
2023-02-17T14:03:13.120Z,0.60
2023-02-17T14:05:45.183Z,0.47
2023-02-17T14:13:59.026Z,0.52
2023-02-17T14:16:31.781Z,0.73
2023-02-17T14:19:05.471Z,0.50
2023-02-17T14:21:33.783Z,0.60
2023-02-17T14:24:05.040Z,0.65
2023-02-17T14:26:37.642Z,0.50
2023-02-17T14:29:11.005Z,0.60
2023-02-17T14:31:44.277Z,0.55
2023-02-17T14:34:27.138Z,0.60
2023-02-17T14:36:56.531Z,0.40
2023-02-17T14:39:24.799Z,0.50
2023-02-17T14:41:56.174Z,0.60
2023-02-17T14:44:26.159Z,0.43
2023-02-17T14:46:55.986Z,0.77
2023-02-17T14:49:24.527Z,0.50
2023-02-17T14:51:53.348Z,0.50
2023-02-17T14:54:21.894Z,0.60
2023-02-17T14:57:04.045Z,0.30
2023-02-17T14:59:33.923Z,0.73
2023-02-17T15:03:29.125Z,0.57
2023-02-17T15:05:58.182Z,0.50
2023-02-17T15:08:36.648Z,0.35
2023-02-17T15:11:17.170Z,0.63
2023-02-17T15:13:45.292Z,0.60
2023-02-17T15:16:16.456Z,0.40
2023-02-17T15:18:46.054Z,0.60
2023-02-17T15:21:28.035Z,0.50
2023-02-17T15:24:00.117Z,0.60
2023-02-17T15:26:32.796Z,0.28
2023-02-17T15:29:03.558Z,0.52
2023-02-17T15:31:36.538Z,0.85
2023-02-17T15:34:15.278Z,0.57
2023-02-17T15:36:46.896Z,0.52
2023-02-17T15:39:18.021Z,0.30
2023-02-17T15:44:43.734Z,0.70
2023-02-17T15:47:17.023Z,0.73
2023-02-17T15:49:49.051Z,1.17
2023-02-17T15:52:17.393Z,0.52
2023-02-17T15:54:46.336Z,0.85
2023-02-17T15:57:23.384Z,0.70
2023-02-17T15:59:55.117Z,1.17
2023-02-17T16:02:25.338Z,1.27
2023-02-17T16:04:55.271Z,1.13
2023-02-17T16:07:23.528Z,1.00
2023-02-17T16:09:51.626Z,0.80
2023-02-17T16:12:26.609Z,1.00
2023-02-17T16:14:55.668Z,0.77
2023-02-17T16:17:24.802Z,1.00
2023-02-17T16:19:56.121Z,0.75
2023-02-17T16:22:26.606Z,0.73
2023-02-17T16:24:54.743Z,0.80
2023-02-17T16:27:24.644Z,1.20
2023-02-17T16:29:52.937Z,0.85
2023-02-17T16:32:27.421Z,1.05
2023-02-17T16:35:01.589Z,1.20
2023-02-17T16:37:31.172Z,0.98
2023-02-17T16:40:00.333Z,0.57
2023-02-17T16:42:33.688Z,0.70
2023-02-17T16:45:01.989Z,0.47
2023-02-17T16:47:32.090Z,0.95
2023-02-17T16:50:06.158Z,0.47
2023-02-17T16:52:34.998Z,0.43
2023-02-17T16:55:03.252Z,0.60
2023-02-17T16:57:32.559Z,0.77
2023-02-17T17:00:00.722Z,0.52
2023-02-17T17:02:29.163Z,0.60
2023-02-17T17:05:00.459Z,0.68
2023-02-17T17:07:32.438Z,0.70
2023-02-17T17:10:17.797Z,0.82
2023-02-17T17:12:47.316Z,0.65
2023-02-17T17:15:16.862Z,0.75
2023-02-17T17:17:47.550Z,0.65
2023-02-17T17:20:18.066Z,0.38
2023-02-17T17:22:49.347Z,0.60
2023-02-17T17:25:18.115Z,0.63
2023-02-17T17:27:46.852Z,0.50
2023-02-17T17:30:18.518Z,0.95
2023-02-17T17:32:47.395Z,0.80
2023-02-17T17:35:16.070Z,0.60
2023-02-17T17:37:46.408Z,0.82
2023-02-17T17:40:21.762Z,1.02
2023-02-17T17:42:50.340Z,0.70
2023-02-17T17:45:18.928Z,0.60
2023-02-17T17:47:47.387Z,0.55
2023-02-17T17:50:21.822Z,0.50
2023-02-17T17:52:50.180Z,0.57
2023-02-17T17:55:22.658Z,1.00
2023-02-17T17:57:53.688Z,0.45
2023-02-17T18:00:22.972Z,0.20
2023-02-17T18:02:53.805Z,0.63
2023-02-17T18:05:22.531Z,0.50
2023-02-17T18:07:52.176Z,0.65
2023-02-17T18:10:20.466Z,0.70
2023-02-17T18:12:50.211Z,0.63
2023-02-17T18:15:19.678Z,0.68
2023-02-17T18:17:49.777Z,0.93
2023-02-17T18:20:18.292Z,0.45
2023-02-17T18:22:46.780Z,0.98
2023-02-17T18:25:15.140Z,0.40
2023-02-17T18:27:45.863Z,1.55
2023-02-17T18:30:18.382Z,0.82
2023-02-17T18:32:49.932Z,0.32
2023-02-17T18:35:18.966Z,0.75
2023-02-17T18:37:48.174Z,0.70
2023-02-17T18:40:19.556Z,0.73
2023-02-17T18:42:49.302Z,0.70
2023-02-17T18:45:19.906Z,0.68
2023-02-17T18:47:53.360Z,1.35
2023-02-17T18:50:22.001Z,1.13
2023-02-17T18:52:54.498Z,1.55
2023-02-17T18:55:25.481Z,1.58
2023-02-17T18:58:01.470Z,0.80
2023-02-17T19:00:33.432Z,0.50
2023-02-17T19:03:01.912Z,0.50
2023-02-17T19:05:30.820Z,0.80
2023-02-17T19:08:01.672Z,1.05
2023-02-17T19:10:31.984Z,0.98
2023-02-17T19:13:00.403Z,0.73
2023-02-17T19:15:29.550Z,0.50
2023-02-17T19:17:59.398Z,0.68
2023-02-17T19:20:29.316Z,0.70
2023-02-17T19:22:59.965Z,0.60
2023-02-17T19:25:28.998Z,0.63
2023-02-17T19:28:03.313Z,0.75
2023-02-17T19:30:32.212Z,0.75
2023-02-17T19:33:04.370Z,0.40
2023-02-17T19:35:32.644Z,0.60
2023-02-17T19:38:03.970Z,0.60
2023-02-17T19:40:32.692Z,0.70
2023-02-17T19:43:01.438Z,0.98
2023-02-17T19:45:29.885Z,0.70
2023-02-17T19:48:00.565Z,0.60
2023-02-17T19:50:32.130Z,0.47
2023-02-17T19:53:00.242Z,0.60
2023-02-17T19:55:28.543Z,0.57
2023-02-17T19:57:59.555Z,0.90
2023-02-17T20:00:28.844Z,0.50
2023-02-17T20:04:29.499Z,1.17
2023-02-17T20:06:58.614Z,0.90
2023-02-17T20:09:30.010Z,0.75
2023-02-17T20:11:58.378Z,0.95
2023-02-17T20:14:29.229Z,0.82
2023-02-17T20:16:57.779Z,0.98
2023-02-17T20:19:26.174Z,0.50
2023-02-17T20:21:55.805Z,0.82
2023-02-17T20:24:26.237Z,0.63
2023-02-17T20:26:54.547Z,0.75
2023-02-17T20:29:22.653Z,0.68
2023-02-17T20:31:52.004Z,0.60
2023-02-17T20:34:29.055Z,0.70
2023-02-17T20:37:00.150Z,0.95
2023-02-17T20:39:31.385Z,0.70
2023-02-17T20:42:00.567Z,1.20
2023-02-17T20:44:29.214Z,0.82
2023-02-17T20:46:58.032Z,1.15
2023-02-17T20:49:26.427Z,0.70
2023-02-17T20:51:58.154Z,1.10
2023-02-17T20:54:27.122Z,1.15
2023-02-17T20:56:57.644Z,1.10
2023-02-17T20:59:26.411Z,0.90
2023-02-17T21:01:58.583Z,0.77
2023-02-17T21:04:26.714Z,0.52
2023-02-17T21:06:55.090Z,1.20
2023-02-17T21:09:24.542Z,0.95
2023-02-17T21:11:53.181Z,1.17
2023-02-17T21:14:21.321Z,0.60
2023-02-17T21:16:49.839Z,0.85
2023-02-17T21:19:19.300Z,0.70
2023-02-17T21:21:47.819Z,1.02
2023-02-17T21:24:16.261Z,1.08
2023-02-17T21:26:46.067Z,1.00
2023-02-17T21:29:14.764Z,1.02
2023-02-17T21:31:46.078Z,0.88
2023-02-17T21:34:17.439Z,0.85
2023-02-17T21:36:46.539Z,0.70
2023-02-17T21:39:15.097Z,0.88
2023-02-17T21:41:45.448Z,1.02
2023-02-17T21:44:31.506Z,1.92
2023-02-17T21:47:00.010Z,1.45
2023-02-17T21:49:28.594Z,1.00
2023-02-17T21:51:57.195Z,1.10
2023-02-17T21:54:25.751Z,1.23
2023-02-17T21:57:00.435Z,1.25
2023-02-17T21:59:28.682Z,1.13
2023-02-17T22:01:56.849Z,1.15
2023-02-17T22:04:28.168Z,1.13
2023-02-17T22:06:56.345Z,0.68
2023-02-17T22:09:24.497Z,0.90
2023-02-17T22:11:52.662Z,0.90
2023-02-17T22:14:22.794Z,1.23
2023-02-17T22:16:53.802Z,1.00
2023-02-17T22:19:24.632Z,1.10
2023-02-17T22:21:53.316Z,1.38
2023-02-17T22:24:21.735Z,0.90
2023-02-17T22:26:50.220Z,1.30
2023-02-17T22:29:18.819Z,0.88
2023-02-17T22:31:50.589Z,1.00
2023-02-17T22:34:18.957Z,0.90
2023-02-17T22:36:47.514Z,0.80
2023-02-17T22:39:17.717Z,1.10
2023-02-17T22:41:48.332Z,1.08
2023-02-17T22:44:18.901Z,0.68
2023-02-17T22:46:50.623Z,1.17
2023-02-17T22:49:19.269Z,0.77
2023-02-17T22:51:47.335Z,0.50
2023-02-17T22:54:15.453Z,0.80
2023-02-17T22:56:43.517Z,1.42
2023-02-17T22:59:14.779Z,0.88
2023-02-17T23:01:42.953Z,0.75
2023-02-17T23:04:14.484Z,0.63
2023-02-17T23:06:43.528Z,1.10
2023-02-17T23:09:16.695Z,0.70
2023-02-17T23:11:51.264Z,1.00
2023-02-17T23:14:22.133Z,0.98
2023-02-17T23:16:50.245Z,0.98
2023-02-17T23:19:22.108Z,0.90
2023-02-17T23:21:53.166Z,0.90
2023-02-17T23:24:22.664Z,1.15
2023-02-17T23:26:54.967Z,1.15
2023-02-17T23:29:24.678Z,1.08
2023-02-17T23:31:52.893Z,1.13
2023-02-17T23:34:23.155Z,0.80
2023-02-17T23:36:51.357Z,1.00
2023-02-17T23:39:20.013Z,0.90
2023-02-17T23:41:48.758Z,1.30
2023-02-17T23:44:17.674Z,1.40
2023-02-17T23:46:47.028Z,0.95
2023-02-17T23:49:16.730Z,0.93
2023-02-17T23:51:47.291Z,1.00
2023-02-17T23:54:16.480Z,1.75
2023-02-17T23:56:45.109Z,1.60
2023-02-17T23:59:13.433Z,0.95
